sensor_id;sensor_type;location;lat;lon;timestamp;pressure;altitude;pressure_sealevel;temperature;humidity
4590;BME280;2307;48.448;9.216;2023-10-19T10:12:16;93538.34;;;18.92;100.00
4590;BME280;2307;48.448;9.216;2023-10-19T10:14:52;93537.19;;;18.28;100.00
4590;BME280;2307;48.448;9.216;2023-10-19T10:17:18;93522.41;;;17.68;100.00
4590;BME280;2307;48.448;9.216;2023-10-19T10:19:45;93524.00;;;17.31;100.00
4590;BME280;2307;48.448;9.216;2023-10-19T10:22:11;93525.97;;;17.14;100.00
4590;BME280;2307;48.448;9.216;2023-10-19T10:24:40;93515.97;;;17.02;100.00
4590;BME280;2307;48.448;9.216;2023-10-19T10:27:06;93521.16;;;16.98;100.00
4590;BME280;2307;48.448;9.216;2023-10-19T10:29:36;93528.56;;;16.84;100.00
4590;BME280;2307;48.448;9.216;2023-10-19T10:32:03;93523.88;;;16.81;100.00
4590;BME280;2307;48.448;9.216;2023-10-19T10:34:42;93520.44;;;16.81;100.00
4590;BME280;2307;48.448;9.216;2023-10-19T10:37:09;93528.31;;;16.77;100.00
4590;BME280;2307;48.448;9.216;2023-10-19T10:39:36;93521.22;;;16.81;100.00
4590;BME280;2307;48.448;9.216;2023-10-19T10:42:03;93519.38;;;16.73;100.00
4590;BME280;2307;48.448;9.216;2023-10-19T10:44:38;93519.53;;;16.77;100.00
4590;BME280;2307;48.448;9.216;2023-10-19T10:47:06;93530.34;;;16.72;100.00
4590;BME280;2307;48.448;9.216;2023-10-19T10:49:34;93524.59;;;16.61;100.00
4590;BME280;2307;48.448;9.216;2023-10-19T10:52:00;93525.19;;;16.49;100.00
4590;BME280;2307;48.448;9.216;2023-10-19T10:54:26;93531.97;;;16.30;100.00
4590;BME280;2307;48.448;9.216;2023-10-19T10:56:53;93539.34;;;16.07;100.00
4590;BME280;2307;48.448;9.216;2023-10-19T10:59:19;93540.59;;;15.92;100.00
4590;BME280;2307;48.448;9.216;2023-10-19T11:01:47;93547.16;;;15.78;100.00
4590;BME280;2307;48.448;9.216;2023-10-19T11:04:13;93558.44;;;15.66;100.00
4590;BME280;2307;48.448;9.216;2023-10-19T11:06:48;93566.88;;;15.60;100.00
4590;BME280;2307;48.448;9.216;2023-10-19T11:09:15;93570.44;;;15.55;100.00
4590;BME280;2307;48.448;9.216;2023-10-19T11:11:43;93592.97;;;15.49;100.00
4590;BME280;2307;48.448;9.216;2023-10-19T11:14:10;93592.75;;;15.46;100.00
4590;BME280;2307;48.448;9.216;2023-10-19T11:16:37;93587.09;;;15.38;100.00
4590;BME280;2307;48.448;9.216;2023-10-19T11:19:05;93596.19;;;15.37;100.00
4590;BME280;2307;48.448;9.216;2023-10-19T11:21:32;93609.16;;;15.39;100.00
4590;BME280;2307;48.448;9.216;2023-10-19T11:23:59;93614.50;;;15.39;100.00
4590;BME280;2307;48.448;9.216;2023-10-19T11:26:25;93616.06;;;15.40;100.00
4590;BME280;2307;48.448;9.216;2023-10-19T11:28:56;93629.66;;;15.38;100.00
4590;BME280;2307;48.448;9.216;2023-10-19T11:31:23;93616.69;;;15.37;100.00
4590;BME280;2307;48.448;9.216;2023-10-19T11:33:50;93600.72;;;15.37;100.00
4590;BME280;2307;48.448;9.216;2023-10-19T11:36:19;93597.91;;;15.42;100.00
4590;BME280;2307;48.448;9.216;2023-10-19T11:38:46;93606.25;;;15.49;100.00
4590;BME280;2307;48.448;9.216;2023-10-19T11:41:13;93610.50;;;15.50;100.00
4590;BME280;2307;48.448;9.216;2023-10-19T11:43:40;93601.81;;;15.44;100.00
4590;BME280;2307;48.448;9.216;2023-10-19T11:46:08;93603.22;;;15.42;100.00
4590;BME280;2307;48.448;9.216;2023-10-19T11:48:34;93596.94;;;15.38;100.00
4590;BME280;2307;48.448;9.216;2023-10-19T11:51:01;93591.16;;;15.27;100.00
4590;BME280;2307;48.448;9.216;2023-10-19T11:53:31;93584.06;;;15.23;100.00
4590;BME280;2307;48.448;9.216;2023-10-19T11:55:59;93573.59;;;15.18;100.00
4590;BME280;2307;48.448;9.216;2023-10-19T11:58:26;93563.06;;;15.13;100.00
4590;BME280;2307;48.448;9.216;2023-10-19T12:00:53;93560.88;;;15.06;100.00
4590;BME280;2307;48.448;9.216;2023-10-19T12:03:20;93546.81;;;15.06;100.00
4590;BME280;2307;48.448;9.216;2023-10-19T12:05:46;93535.81;;;14.99;100.00
4590;BME280;2307;48.448;9.216;2023-10-19T12:08:13;93514.38;;;14.95;100.00
4590;BME280;2307;48.448;9.216;2023-10-19T12:10:41;93519.53;;;14.92;100.00
4590;BME280;2307;48.448;9.216;2023-10-19T12:13:07;93508.88;;;14.92;100.00
4590;BME280;2307;48.448;9.216;2023-10-19T12:15:34;93511.69;;;14.86;100.00
4590;BME280;2307;48.448;9.216;2023-10-19T12:18:01;93513.13;;;14.93;100.00
4590;BME280;2307;48.448;9.216;2023-10-19T12:20:28;93517.22;;;14.99;100.00
4590;BME280;2307;48.448;9.216;2023-10-19T12:22:56;93510.50;;;15.10;100.00
4590;BME280;2307;48.448;9.216;2023-10-19T12:25:24;93502.41;;;15.15;100.00
4590;BME280;2307;48.448;9.216;2023-10-19T12:27:56;93507.09;;;15.18;100.00
4590;BME280;2307;48.448;9.216;2023-10-19T12:30:23;93511.47;;;15.22;100.00
4590;BME280;2307;48.448;9.216;2023-10-19T12:32:51;93511.34;;;15.27;100.00
4590;BME280;2307;48.448;9.216;2023-10-19T12:35:18;93506.22;;;15.31;100.00
4590;BME280;2307;48.448;9.216;2023-10-19T12:37:45;93505.59;;;15.34;100.00
4590;BME280;2307;48.448;9.216;2023-10-19T12:40:16;93523.25;;;15.38;100.00
4590;BME280;2307;48.448;9.216;2023-10-19T12:42:52;93516.69;;;15.44;100.00
4590;BME280;2307;48.448;9.216;2023-10-19T12:45:21;93521.44;;;15.48;100.00
4590;BME280;2307;48.448;9.216;2023-10-19T12:47:48;93521.59;;;15.51;100.00
4590;BME280;2307;48.448;9.216;2023-10-19T12:50:14;93520.69;;;15.64;100.00
4590;BME280;2307;48.448;9.216;2023-10-19T12:52:41;93518.81;;;15.73;100.00
4590;BME280;2307;48.448;9.216;2023-10-19T12:55:07;93525.84;;;15.95;100.00
4590;BME280;2307;48.448;9.216;2023-10-19T12:57:34;93524.16;;;16.08;100.00
4590;BME280;2307;48.448;9.216;2023-10-19T13:00:00;93511.63;;;16.00;100.00
4590;BME280;2307;48.448;9.216;2023-10-19T13:02:33;93507.41;;;16.07;100.00
4590;BME280;2307;48.448;9.216;2023-10-19T13:04:59;93507.25;;;16.04;100.00
4590;BME280;2307;48.448;9.216;2023-10-19T13:07:26;93508.78;;;15.96;100.00
4590;BME280;2307;48.448;9.216;2023-10-19T13:09:53;93508.34;;;15.94;100.00
4590;BME280;2307;48.448;9.216;2023-10-19T13:12:20;93498.16;;;15.87;100.00
4590;BME280;2307;48.448;9.216;2023-10-19T13:14:48;93511.00;;;15.85;100.00
4590;BME280;2307;48.448;9.216;2023-10-19T13:17:17;93520.06;;;15.84;100.00
4590;BME280;2307;48.448;9.216;2023-10-19T13:19:45;93519.75;;;15.77;100.00
4590;BME280;2307;48.448;9.216;2023-10-19T13:22:12;93511.44;;;15.70;100.00
4590;BME280;2307;48.448;9.216;2023-10-19T13:24:40;93504.09;;;15.67;100.00
4590;BME280;2307;48.448;9.216;2023-10-19T13:27:07;93502.53;;;15.66;100.00
4590;BME280;2307;48.448;9.216;2023-10-19T13:29:34;93496.72;;;15.64;100.00
4590;BME280;2307;48.448;9.216;2023-10-19T13:32:03;93504.72;;;15.64;100.00
4590;BME280;2307;48.448;9.216;2023-10-19T13:34:30;93505.66;;;15.68;100.00
4590;BME280;2307;48.448;9.216;2023-10-19T13:36:58;93494.84;;;15.65;100.00
4590;BME280;2307;48.448;9.216;2023-10-19T13:39:24;93490.00;;;15.67;100.00
4590;BME280;2307;48.448;9.216;2023-10-19T13:41:53;93491.09;;;15.66;100.00
4590;BME280;2307;48.448;9.216;2023-10-19T13:44:19;93472.63;;;15.61;100.00
4590;BME280;2307;48.448;9.216;2023-10-19T13:46:47;93466.38;;;15.57;100.00
4590;BME280;2307;48.448;9.216;2023-10-19T13:49:16;93469.59;;;15.45;100.00
4590;BME280;2307;48.448;9.216;2023-10-19T13:51:44;93464.28;;;15.45;100.00
4590;BME280;2307;48.448;9.216;2023-10-19T13:54:11;93461.03;;;15.48;100.00
4590;BME280;2307;48.448;9.216;2023-10-19T13:56:38;93466.47;;;15.43;100.00
4590;BME280;2307;48.448;9.216;2023-10-19T13:59:04;93460.69;;;15.41;100.00
4590;BME280;2307;48.448;9.216;2023-10-19T14:01:32;93439.41;;;15.41;100.00
4590;BME280;2307;48.448;9.216;2023-10-19T14:03:59;93426.13;;;15.41;100.00
4590;BME280;2307;48.448;9.216;2023-10-19T14:06:25;93421.41;;;15.38;100.00
4590;BME280;2307;48.448;9.216;2023-10-19T14:08:52;93422.97;;;15.39;100.00
4590;BME280;2307;48.448;9.216;2023-10-19T14:11:21;93407.97;;;15.43;100.00
4590;BME280;2307;48.448;9.216;2023-10-19T14:13:48;93407.50;;;15.41;100.00
4590;BME280;2307;48.448;9.216;2023-10-19T14:16:17;93403.72;;;15.42;100.00
4590;BME280;2307;48.448;9.216;2023-10-19T14:18:43;93407.00;;;15.39;100.00
4590;BME280;2307;48.448;9.216;2023-10-19T14:21:10;93401.06;;;15.33;100.00
4590;BME280;2307;48.448;9.216;2023-10-19T14:23:37;93407.94;;;15.26;100.00
4590;BME280;2307;48.448;9.216;2023-10-19T14:26:05;93407.63;;;15.19;100.00
4590;BME280;2307;48.448;9.216;2023-10-19T14:28:32;93410.25;;;15.10;100.00
4590;BME280;2307;48.448;9.216;2023-10-19T14:31:00;93423.41;;;15.07;100.00
4590;BME280;2307;48.448;9.216;2023-10-19T14:33:29;93419.81;;;15.03;100.00
4590;BME280;2307;48.448;9.216;2023-10-19T14:35:55;93420.56;;;14.95;100.00
4590;BME280;2307;48.448;9.216;2023-10-19T14:38:21;93410.09;;;14.89;100.00
4590;BME280;2307;48.448;9.216;2023-10-19T14:40:50;93403.19;;;14.88;100.00
4590;BME280;2307;48.448;9.216;2023-10-19T14:43:18;93389.13;;;14.88;100.00
4590;BME280;2307;48.448;9.216;2023-10-19T14:45:46;93401.78;;;14.82;100.00
4590;BME280;2307;48.448;9.216;2023-10-19T14:48:12;93389.44;;;14.86;100.00
4590;BME280;2307;48.448;9.216;2023-10-19T14:50:39;93393.81;;;14.82;100.00
4590;BME280;2307;48.448;9.216;2023-10-19T14:53:07;93405.06;;;14.79;100.00
4590;BME280;2307;48.448;9.216;2023-10-19T14:55:33;93404.25;;;14.79;100.00
4590;BME280;2307;48.448;9.216;2023-10-19T14:58:01;93403.66;;;14.82;100.00
4590;BME280;2307;48.448;9.216;2023-10-19T15:00:27;93402.84;;;14.81;100.00
4590;BME280;2307;48.448;9.216;2023-10-19T15:03:00;93394.88;;;14.81;100.00
4590;BME280;2307;48.448;9.216;2023-10-19T15:05:29;93378.03;;;14.86;100.00
4590;BME280;2307;48.448;9.216;2023-10-19T15:08:00;93381.19;;;14.97;100.00
4590;BME280;2307;48.448;9.216;2023-10-19T15:10:27;93381.47;;;15.04;100.00
4590;BME280;2307;48.448;9.216;2023-10-19T15:12:54;93370.56;;;15.05;100.00
4590;BME280;2307;48.448;9.216;2023-10-19T15:15:21;93359.75;;;15.02;100.00
4590;BME280;2307;48.448;9.216;2023-10-19T15:17:48;93359.91;;;14.97;100.00
4590;BME280;2307;48.448;9.216;2023-10-19T15:20:17;93358.34;;;14.96;100.00
4590;BME280;2307;48.448;9.216;2023-10-19T15:22:43;93351.00;;;14.93;100.00
4590;BME280;2307;48.448;9.216;2023-10-19T15:25:10;93339.56;;;14.92;100.00
4590;BME280;2307;48.448;9.216;2023-10-19T15:27:38;93323.78;;;14.96;100.00
4590;BME280;2307;48.448;9.216;2023-10-19T15:30:05;93310.81;;;15.03;100.00
4590;BME280;2307;48.448;9.216;2023-10-19T15:32:32;93310.66;;;14.99;100.00
4590;BME280;2307;48.448;9.216;2023-10-19T15:34:58;93307.22;;;14.99;100.00
4590;BME280;2307;48.448;9.216;2023-10-19T15:37:26;93299.53;;;14.97;100.00
4590;BME280;2307;48.448;9.216;2023-10-19T15:39:52;93312.22;;;14.92;100.00
4590;BME280;2307;48.448;9.216;2023-10-19T15:42:19;93305.47;;;14.85;100.00
4590;BME280;2307;48.448;9.216;2023-10-19T15:44:47;93292.03;;;14.82;100.00
4590;BME280;2307;48.448;9.216;2023-10-19T15:47:13;93293.91;;;14.81;100.00
4590;BME280;2307;48.448;9.216;2023-10-19T15:49:45;93283.13;;;14.78;100.00
4590;BME280;2307;48.448;9.216;2023-10-19T15:52:12;93303.75;;;14.72;100.00
4590;BME280;2307;48.448;9.216;2023-10-19T15:54:40;93311.38;;;14.65;100.00
4590;BME280;2307;48.448;9.216;2023-10-19T15:57:06;93311.25;;;14.62;100.00
4590;BME280;2307;48.448;9.216;2023-10-19T15:59:33;93309.34;;;14.62;100.00
4590;BME280;2307;48.448;9.216;2023-10-19T16:01:59;93303.91;;;14.67;100.00
4590;BME280;2307;48.448;9.216;2023-10-19T16:04:26;93294.38;;;14.66;100.00
4590;BME280;2307;48.448;9.216;2023-10-19T16:06:52;93297.47;;;14.60;100.00
4590;BME280;2307;48.448;9.216;2023-10-19T16:09:19;93296.38;;;14.52;100.00
4590;BME280;2307;48.448;9.216;2023-10-19T16:11:48;93271.25;;;14.58;100.00
4590;BME280;2307;48.448;9.216;2023-10-19T16:14:15;93270.63;;;14.61;100.00
4590;BME280;2307;48.448;9.216;2023-10-19T16:16:44;93265.59;;;14.68;100.00
4590;BME280;2307;48.448;9.216;2023-10-19T16:19:10;93263.91;;;14.72;100.00
4590;BME280;2307;48.448;9.216;2023-10-19T16:21:37;93272.03;;;14.67;100.00
4590;BME280;2307;48.448;9.216;2023-10-19T16:24:05;93275.94;;;14.61;100.00
4590;BME280;2307;48.448;9.216;2023-10-19T16:26:32;93275.59;;;14.71;100.00
4590;BME280;2307;48.448;9.216;2023-10-19T16:29:00;93281.88;;;14.67;100.00
4590;BME280;2307;48.448;9.216;2023-10-19T16:31:26;93282.66;;;14.67;100.00
4590;BME280;2307;48.448;9.216;2023-10-19T16:33:53;93285.63;;;14.74;100.00
4590;BME280;2307;48.448;9.216;2023-10-19T16:36:19;93290.94;;;14.74;100.00
4590;BME280;2307;48.448;9.216;2023-10-19T16:38:45;93304.53;;;14.73;100.00
4590;BME280;2307;48.448;9.216;2023-10-19T16:41:12;93308.44;;;14.75;100.00
4590;BME280;2307;48.448;9.216;2023-10-19T16:43:38;93312.50;;;14.81;100.00
4590;BME280;2307;48.448;9.216;2023-10-19T16:46:06;93320.19;;;14.74;100.00
4590;BME280;2307;48.448;9.216;2023-10-19T16:48:32;93329.84;;;14.70;100.00
4590;BME280;2307;48.448;9.216;2023-10-19T16:51:02;93315.63;;;14.66;100.00
4590;BME280;2307;48.448;9.216;2023-10-19T16:53:28;93316.25;;;14.63;100.00
4590;BME280;2307;48.448;9.216;2023-10-19T16:55:56;93305.16;;;14.61;100.00
4590;BME280;2307;48.448;9.216;2023-10-19T16:58:23;93293.88;;;14.56;100.00
4590;BME280;2307;48.448;9.216;2023-10-19T17:00:49;93284.97;;;14.60;100.00
4590;BME280;2307;48.448;9.216;2023-10-19T17:03:17;93278.72;;;14.56;100.00
4590;BME280;2307;48.448;9.216;2023-10-19T17:05:44;93283.75;;;14.58;100.00
4590;BME280;2307;48.448;9.216;2023-10-19T17:08:11;93291.72;;;14.66;100.00
4590;BME280;2307;48.448;9.216;2023-10-19T17:10:38;93287.47;;;14.65;100.00
4590;BME280;2307;48.448;9.216;2023-10-19T17:13:04;93278.59;;;14.61;100.00
4590;BME280;2307;48.448;9.216;2023-10-19T17:15:31;93277.47;;;14.62;100.00
4590;BME280;2307;48.448;9.216;2023-10-19T17:17:58;93264.34;;;14.57;100.00
4590;BME280;2307;48.448;9.216;2023-10-19T17:20:26;93266.84;;;14.54;100.00
4590;BME280;2307;48.448;9.216;2023-10-19T17:22:54;93277.78;;;14.52;100.00
4590;BME280;2307;48.448;9.216;2023-10-19T17:25:21;93284.03;;;14.48;100.00
4590;BME280;2307;48.448;9.216;2023-10-19T17:27:47;93285.59;;;14.49;100.00
4590;BME280;2307;48.448;9.216;2023-10-19T17:30:13;93280.13;;;14.45;100.00
4590;BME280;2307;48.448;9.216;2023-10-19T17:32:40;93278.09;;;14.42;100.00
4590;BME280;2307;48.448;9.216;2023-10-19T17:35:07;93276.50;;;14.41;100.00
4590;BME280;2307;48.448;9.216;2023-10-19T17:37:35;93268.88;;;14.40;100.00
4590;BME280;2307;48.448;9.216;2023-10-19T17:40:02;93271.19;;;14.41;100.00
4590;BME280;2307;48.448;9.216;2023-10-19T17:42:29;93247.31;;;14.41;100.00
4590;BME280;2307;48.448;9.216;2023-10-19T17:44:56;93237.59;;;14.36;100.00
4590;BME280;2307;48.448;9.216;2023-10-19T17:47:22;93220.72;;;14.32;100.00
4590;BME280;2307;48.448;9.216;2023-10-19T17:49:50;93209.94;;;14.29;100.00
4590;BME280;2307;48.448;9.216;2023-10-19T17:52:17;93216.03;;;14.29;100.00
4590;BME280;2307;48.448;9.216;2023-10-19T17:54:47;93225.84;;;14.29;100.00
4590;BME280;2307;48.448;9.216;2023-10-19T17:57:14;93219.75;;;14.28;100.00
4590;BME280;2307;48.448;9.216;2023-10-19T17:59:42;93227.75;;;14.37;100.00
4590;BME280;2307;48.448;9.216;2023-10-19T18:02:08;93234.47;;;14.34;100.00
4590;BME280;2307;48.448;9.216;2023-10-19T18:04:36;93236.22;;;14.39;100.00
4590;BME280;2307;48.448;9.216;2023-10-19T18:07:02;93235.56;;;14.33;100.00
4590;BME280;2307;48.448;9.216;2023-10-19T18:09:29;93240.72;;;14.30;100.00
4590;BME280;2307;48.448;9.216;2023-10-19T18:11:58;93229.97;;;14.35;100.00
4590;BME280;2307;48.448;9.216;2023-10-19T18:14:24;93222.78;;;14.35;100.00
4590;BME280;2307;48.448;9.216;2023-10-19T18:16:51;93210.59;;;14.34;100.00
4590;BME280;2307;48.448;9.216;2023-10-19T18:19:17;93192.63;;;14.40;100.00
4590;BME280;2307;48.448;9.216;2023-10-19T18:21:44;93203.72;;;14.42;100.00
4590;BME280;2307;48.448;9.216;2023-10-19T18:24:10;93204.19;;;14.44;100.00
4590;BME280;2307;48.448;9.216;2023-10-19T18:26:38;93215.59;;;14.36;100.00
4590;BME280;2307;48.448;9.216;2023-10-19T18:29:06;93219.34;;;14.35;100.00
4590;BME280;2307;48.448;9.216;2023-10-19T18:31:33;93221.16;;;14.26;100.00
4590;BME280;2307;48.448;9.216;2023-10-19T18:34:00;93204.63;;;14.29;100.00
4590;BME280;2307;48.448;9.216;2023-10-19T18:36:27;93213.81;;;14.23;100.00
4590;BME280;2307;48.448;9.216;2023-10-19T18:38:58;93217.22;;;14.15;100.00
4590;BME280;2307;48.448;9.216;2023-10-19T18:41:25;93228.00;;;14.10;100.00
4590;BME280;2307;48.448;9.216;2023-10-19T18:43:51;93235.19;;;14.09;100.00
4590;BME280;2307;48.448;9.216;2023-10-19T18:46:20;93241.44;;;14.05;100.00
4590;BME280;2307;48.448;9.216;2023-10-19T18:48:46;93241.72;;;13.95;100.00
4590;BME280;2307;48.448;9.216;2023-10-19T18:51:13;93235.63;;;14.03;100.00
4590;BME280;2307;48.448;9.216;2023-10-19T18:53:39;93225.16;;;13.98;100.00
4590;BME280;2307;48.448;9.216;2023-10-19T18:56:06;93235.63;;;13.94;100.00
4590;BME280;2307;48.448;9.216;2023-10-19T18:58:33;93234.38;;;13.92;100.00
4590;BME280;2307;48.448;9.216;2023-10-19T19:01:01;93217.34;;;13.93;100.00
4590;BME280;2307;48.448;9.216;2023-10-19T19:03:30;93211.84;;;13.89;100.00
4590;BME280;2307;48.448;9.216;2023-10-19T19:05:57;93213.25;;;13.87;100.00
4590;BME280;2307;48.448;9.216;2023-10-19T19:08:24;93214.97;;;13.82;100.00
4590;BME280;2307;48.448;9.216;2023-10-19T19:10:50;93216.53;;;13.83;100.00
4590;BME280;2307;48.448;9.216;2023-10-19T19:13:17;93205.31;;;13.87;100.00
4590;BME280;2307;48.448;9.216;2023-10-19T19:15:44;93205.91;;;13.83;100.00
4590;BME280;2307;48.448;9.216;2023-10-19T19:18:11;93204.31;;;13.74;100.00
4590;BME280;2307;48.448;9.216;2023-10-19T19:20:38;93205.09;;;13.74;100.00
4590;BME280;2307;48.448;9.216;2023-10-19T19:23:05;93220.56;;;13.72;100.00
4590;BME280;2307;48.448;9.216;2023-10-19T19:25:33;93213.84;;;13.66;100.00
4590;BME280;2307;48.448;9.216;2023-10-19T19:27:59;93205.69;;;13.63;100.00
4590;BME280;2307;48.448;9.216;2023-10-19T19:30:26;93201.66;;;13.65;100.00
4590;BME280;2307;48.448;9.216;2023-10-19T19:32:52;93178.16;;;13.90;100.00
4590;BME280;2307;48.448;9.216;2023-10-19T19:35:19;93172.56;;;14.00;100.00
4590;BME280;2307;48.448;9.216;2023-10-19T19:37:46;93168.81;;;14.01;100.00
4590;BME280;2307;48.448;9.216;2023-10-19T19:40:13;93161.50;;;14.15;100.00
4590;BME280;2307;48.448;9.216;2023-10-19T19:42:39;93154.00;;;14.17;100.00
4590;BME280;2307;48.448;9.216;2023-10-19T19:45:09;93152.13;;;14.26;100.00
4590;BME280;2307;48.448;9.216;2023-10-19T19:47:37;93137.63;;;14.41;100.00
4590;BME280;2307;48.448;9.216;2023-10-19T19:50:03;93132.94;;;14.46;100.00
4590;BME280;2307;48.448;9.216;2023-10-19T19:52:30;93116.22;;;14.54;100.00
4590;BME280;2307;48.448;9.216;2023-10-19T19:54:58;93125.91;;;14.50;100.00
4590;BME280;2307;48.448;9.216;2023-10-19T19:57:24;93116.53;;;14.53;100.00
4590;BME280;2307;48.448;9.216;2023-10-19T19:59:50;93102.00;;;14.50;100.00
4590;BME280;2307;48.448;9.216;2023-10-19T20:02:17;93113.28;;;14.47;100.00
4590;BME280;2307;48.448;9.216;2023-10-19T20:04:43;93099.50;;;14.54;100.00
4590;BME280;2307;48.448;9.216;2023-10-19T20:07:10;93107.03;;;14.52;100.00
4590;BME280;2307;48.448;9.216;2023-10-19T20:09:37;93109.50;;;14.57;100.00
4590;BME280;2307;48.448;9.216;2023-10-19T20:12:05;93120.75;;;14.54;100.00
4590;BME280;2307;48.448;9.216;2023-10-19T20:14:32;93115.28;;;14.59;100.00
4590;BME280;2307;48.448;9.216;2023-10-19T20:16:59;93105.75;;;14.58;100.00
4590;BME280;2307;48.448;9.216;2023-10-19T20:19:25;93094.66;;;14.64;100.00
4590;BME280;2307;48.448;9.216;2023-10-19T20:21:51;93081.06;;;14.66;100.00
4590;BME280;2307;48.448;9.216;2023-10-19T20:24:18;93066.50;;;14.72;100.00
4590;BME280;2307;48.448;9.216;2023-10-19T20:26:44;93066.84;;;14.70;100.00
4590;BME280;2307;48.448;9.216;2023-10-19T20:29:12;93074.31;;;14.68;100.00
4590;BME280;2307;48.448;9.216;2023-10-19T20:31:38;93072.75;;;14.76;100.00
4590;BME280;2307;48.448;9.216;2023-10-19T20:34:06;93082.13;;;14.73;100.00
4590;BME280;2307;48.448;9.216;2023-10-19T20:36:33;93052.09;;;14.81;100.00
4590;BME280;2307;48.448;9.216;2023-10-19T20:38:59;93061.94;;;14.81;100.00
4590;BME280;2307;48.448;9.216;2023-10-19T20:41:26;93060.25;;;14.76;100.00
4590;BME280;2307;48.448;9.216;2023-10-19T20:43:52;93077.75;;;14.77;100.00
4590;BME280;2307;48.448;9.216;2023-10-19T20:46:22;93036.50;;;14.71;100.00
4590;BME280;2307;48.448;9.216;2023-10-19T20:48:49;93040.91;;;14.67;100.00
4590;BME280;2307;48.448;9.216;2023-10-19T20:51:15;93025.75;;;14.68;100.00
4590;BME280;2307;48.448;9.216;2023-10-19T20:53:42;93024.97;;;14.67;100.00
4590;BME280;2307;48.448;9.216;2023-10-19T20:56:09;93007.44;;;14.66;100.00
4590;BME280;2307;48.448;9.216;2023-10-19T20:58:36;92999.34;;;14.63;100.00
4590;BME280;2307;48.448;9.216;2023-10-19T21:01:04;92977.00;;;14.64;100.00
4590;BME280;2307;48.448;9.216;2023-10-19T21:03:32;92957.91;;;14.70;100.00
4590;BME280;2307;48.448;9.216;2023-10-19T21:05:59;92963.38;;;14.74;100.00
4590;BME280;2307;48.448;9.216;2023-10-19T21:08:25;92949.75;;;14.75;100.00
4590;BME280;2307;48.448;9.216;2023-10-19T21:10:51;92939.84;;;14.84;100.00
4590;BME280;2307;48.448;9.216;2023-10-19T21:13:18;92951.53;;;14.92;100.00
4590;BME280;2307;48.448;9.216;2023-10-19T21:15:44;92946.09;;;14.88;100.00
4590;BME280;2307;48.448;9.216;2023-10-19T21:18:11;92944.03;;;14.94;100.00
4590;BME280;2307;48.448;9.216;2023-10-19T21:20:39;92951.41;;;14.88;100.00
4590;BME280;2307;48.448;9.216;2023-10-19T21:23:05;92937.19;;;14.84;100.00
4590;BME280;2307;48.448;9.216;2023-10-19T21:25:32;92944.72;;;14.82;100.00
4590;BME280;2307;48.448;9.216;2023-10-19T21:27:59;92936.94;;;14.77;100.00
4590;BME280;2307;48.448;9.216;2023-10-19T21:30:25;92925.19;;;14.78;100.00
4590;BME280;2307;48.448;9.216;2023-10-19T21:32:51;92924.75;;;14.76;100.00
4590;BME280;2307;48.448;9.216;2023-10-19T21:35:18;92921.44;;;14.79;100.00
4590;BME280;2307;48.448;9.216;2023-10-19T21:37:46;92915.50;;;14.82;100.00
4590;BME280;2307;48.448;9.216;2023-10-19T21:40:13;92922.81;;;14.85;100.00
4590;BME280;2307;48.448;9.216;2023-10-19T21:42:39;92924.69;;;14.85;100.00
4590;BME280;2307;48.448;9.216;2023-10-19T21:45:06;92924.56;;;14.81;100.00
4590;BME280;2307;48.448;9.216;2023-10-19T21:47:33;92915.22;;;14.75;100.00
4590;BME280;2307;48.448;9.216;2023-10-19T21:50:00;92902.84;;;14.79;100.00
4590;BME280;2307;48.448;9.216;2023-10-19T21:52:26;92899.09;;;14.80;100.00
4590;BME280;2307;48.448;9.216;2023-10-19T21:54:54;92890.00;;;14.81;100.00
4590;BME280;2307;48.448;9.216;2023-10-19T21:57:21;92895.81;;;14.83;100.00
4590;BME280;2307;48.448;9.216;2023-10-19T21:59:47;92884.25;;;14.79;100.00
4590;BME280;2307;48.448;9.216;2023-10-19T22:02:13;92876.72;;;14.81;100.00
4590;BME280;2307;48.448;9.216;2023-10-19T22:04:41;92863.00;;;14.79;100.00
4590;BME280;2307;48.448;9.216;2023-10-19T22:07:07;92859.56;;;14.79;100.00
4590;BME280;2307;48.448;9.216;2023-10-19T22:09:33;92847.06;;;14.79;100.00
4590;BME280;2307;48.448;9.216;2023-10-19T22:12:01;92846.28;;;14.79;100.00
4590;BME280;2307;48.448;9.216;2023-10-19T22:14:28;92843.03;;;14.73;100.00
4590;BME280;2307;48.448;9.216;2023-10-19T22:16:54;92835.75;;;14.62;100.00
4590;BME280;2307;48.448;9.216;2023-10-19T22:19:21;92852.28;;;14.67;100.00
4590;BME280;2307;48.448;9.216;2023-10-19T22:21:51;92836.22;;;14.64;100.00
4590;BME280;2307;48.448;9.216;2023-10-19T22:24:18;92833.63;;;14.76;100.00
4590;BME280;2307;48.448;9.216;2023-10-19T22:26:44;92824.06;;;14.83;100.00
4590;BME280;2307;48.448;9.216;2023-10-19T22:29:12;92844.19;;;14.84;100.00
4590;BME280;2307;48.448;9.216;2023-10-19T22:31:38;92832.16;;;14.87;100.00
4590;BME280;2307;48.448;9.216;2023-10-19T22:34:05;92835.13;;;14.85;100.00
4590;BME280;2307;48.448;9.216;2023-10-19T22:36:31;92824.88;;;14.75;100.00
4590;BME280;2307;48.448;9.216;2023-10-19T22:38:57;92833.69;;;14.67;100.00
4590;BME280;2307;48.448;9.216;2023-10-19T22:41:24;92810.75;;;14.63;100.00
4590;BME280;2307;48.448;9.216;2023-10-19T22:43:52;92822.59;;;14.65;100.00
4590;BME280;2307;48.448;9.216;2023-10-19T22:46:19;92810.81;;;14.54;100.00
4590;BME280;2307;48.448;9.216;2023-10-19T22:48:46;92815.59;;;14.61;100.00
4590;BME280;2307;48.448;9.216;2023-10-19T22:51:12;92803.84;;;14.41;100.00
4590;BME280;2307;48.448;9.216;2023-10-19T22:53:39;92810.28;;;14.31;100.00
4590;BME280;2307;48.448;9.216;2023-10-19T22:56:06;92808.56;;;14.27;100.00
4590;BME280;2307;48.448;9.216;2023-10-19T22:58:33;92794.97;;;14.28;100.00
4590;BME280;2307;48.448;9.216;2023-10-19T23:01:00;92798.41;;;14.29;100.00
4590;BME280;2307;48.448;9.216;2023-10-19T23:03:29;92797.00;;;14.31;100.00
4590;BME280;2307;48.448;9.216;2023-10-19T23:05:56;92798.59;;;14.24;100.00
4590;BME280;2307;48.448;9.216;2023-10-19T23:08:22;92803.13;;;14.23;100.00
4590;BME280;2307;48.448;9.216;2023-10-19T23:10:50;92787.06;;;14.20;100.00
4590;BME280;2307;48.448;9.216;2023-10-19T23:13:16;92790.38;;;14.17;100.00
4590;BME280;2307;48.448;9.216;2023-10-19T23:15:45;92786.16;;;14.16;100.00
4590;BME280;2307;48.448;9.216;2023-10-19T23:18:13;92798.34;;;14.08;100.00
4590;BME280;2307;48.448;9.216;2023-10-19T23:20:42;92778.69;;;14.09;100.00